sensor_id;sensor_type;location;lat;lon;timestamp;pressure;altitude;pressure_sealevel;temperature;humidity
75656;BME280;64252;51.094;13.714;2023-08-21T00:01:04;68188.31;;;-143.53;100.00
75656;BME280;64252;51.094;13.714;2023-08-21T00:03:30;68188.31;;;-143.53;100.00
75656;BME280;64252;51.094;13.714;2023-08-21T00:05:55;68188.31;;;-143.53;100.00
75656;BME280;64252;51.094;13.714;2023-08-21T00:08:21;68188.31;;;-143.53;100.00
75656;BME280;64252;51.094;13.714;2023-08-21T00:10:47;68188.31;;;-143.53;100.00
75656;BME280;64252;51.094;13.714;2023-08-21T00:13:13;68188.31;;;-143.53;100.00
75656;BME280;64252;51.094;13.714;2023-08-21T00:15:40;68188.31;;;-143.53;100.00
75656;BME280;64252;51.094;13.714;2023-08-21T00:18:05;68188.31;;;-143.53;100.00
75656;BME280;64252;51.094;13.714;2023-08-21T00:20:31;68188.31;;;-143.53;100.00
75656;BME280;64252;51.094;13.714;2023-08-21T00:22:57;68188.31;;;-143.53;100.00
75656;BME280;64252;51.094;13.714;2023-08-21T00:25:23;68188.31;;;-143.53;100.00
75656;BME280;64252;51.094;13.714;2023-08-21T00:27:49;68188.31;;;-143.53;100.00
75656;BME280;64252;51.094;13.714;2023-08-21T00:30:14;68188.31;;;-143.53;100.00
75656;BME280;64252;51.094;13.714;2023-08-21T00:32:41;68188.31;;;-143.53;100.00
75656;BME280;64252;51.094;13.714;2023-08-21T00:35:07;68188.31;;;-143.53;100.00
75656;BME280;64252;51.094;13.714;2023-08-21T00:37:33;68188.31;;;-143.53;100.00
75656;BME280;64252;51.094;13.714;2023-08-21T00:39:59;68188.31;;;-143.53;100.00
75656;BME280;64252;51.094;13.714;2023-08-21T00:42:24;68188.31;;;-143.53;100.00
75656;BME280;64252;51.094;13.714;2023-08-21T00:44:51;68188.31;;;-143.53;100.00
75656;BME280;64252;51.094;13.714;2023-08-21T00:47:17;68188.31;;;-143.53;100.00
75656;BME280;64252;51.094;13.714;2023-08-21T00:49:45;68188.31;;;-143.53;100.00
75656;BME280;64252;51.094;13.714;2023-08-21T00:52:12;68188.31;;;-143.53;100.00
75656;BME280;64252;51.094;13.714;2023-08-21T00:54:39;68188.31;;;-143.53;100.00
75656;BME280;64252;51.094;13.714;2023-08-21T00:57:05;68188.31;;;-143.53;100.00
75656;BME280;64252;51.094;13.714;2023-08-21T00:59:31;68188.31;;;-143.53;100.00
75656;BME280;64252;51.094;13.714;2023-08-21T01:01:57;68188.31;;;-143.53;100.00
75656;BME280;64252;51.094;13.714;2023-08-21T01:04:29;68188.31;;;-143.53;100.00
75656;BME280;64252;51.094;13.714;2023-08-21T01:06:56;68188.31;;;-143.53;100.00
75656;BME280;64252;51.094;13.714;2023-08-21T01:15:17;68188.31;;;-143.53;100.00
75656;BME280;64252;51.094;13.714;2023-08-21T01:17:46;68188.31;;;-143.53;100.00
75656;BME280;64252;51.094;13.714;2023-08-21T01:20:14;68188.31;;;-143.53;100.00
75656;BME280;64252;51.094;13.714;2023-08-21T01:22:41;68188.31;;;-143.53;100.00
75656;BME280;64252;51.094;13.714;2023-08-21T01:25:12;68188.31;;;-143.53;100.00
75656;BME280;64252;51.094;13.714;2023-08-21T01:27:46;68188.31;;;-143.53;100.00
75656;BME280;64252;51.094;13.714;2023-08-21T01:30:13;68188.31;;;-143.53;100.00
75656;BME280;64252;51.094;13.714;2023-08-21T01:35:24;68188.31;;;-143.53;100.00
75656;BME280;64252;51.094;13.714;2023-08-21T01:37:51;68188.31;;;-143.53;100.00
75656;BME280;64252;51.094;13.714;2023-08-21T01:40:24;68188.31;;;-143.53;100.00
75656;BME280;64252;51.094;13.714;2023-08-21T01:42:50;68188.31;;;-143.53;100.00
75656;BME280;64252;51.094;13.714;2023-08-21T01:45:17;68188.31;;;-143.53;100.00
75656;BME280;64252;51.094;13.714;2023-08-21T01:47:43;68188.31;;;-143.53;100.00
75656;BME280;64252;51.094;13.714;2023-08-21T01:50:09;68188.31;;;-143.53;100.00
75656;BME280;64252;51.094;13.714;2023-08-21T01:52:35;68188.31;;;-143.53;100.00
75656;BME280;64252;51.094;13.714;2023-08-21T01:55:01;68188.31;;;-143.53;100.00
75656;BME280;64252;51.094;13.714;2023-08-21T01:58:11;68188.31;;;-143.53;100.00
75656;BME280;64252;51.094;13.714;2023-08-21T02:00:38;68188.31;;;-143.53;100.00
75656;BME280;64252;51.094;13.714;2023-08-21T02:03:04;68188.31;;;-143.53;100.00
75656;BME280;64252;51.094;13.714;2023-08-21T02:05:39;68188.31;;;-143.53;100.00
75656;BME280;64252;51.094;13.714;2023-08-21T02:08:20;68188.31;;;-143.53;100.00
75656;BME280;64252;51.094;13.714;2023-08-21T02:10:50;68188.31;;;-143.53;100.00
75656;BME280;64252;51.094;13.714;2023-08-21T02:13:18;68188.31;;;-143.53;100.00
75656;BME280;64252;51.094;13.714;2023-08-21T02:15:45;68188.31;;;-143.53;100.00
75656;BME280;64252;51.094;13.714;2023-08-21T02:18:11;68188.31;;;-143.53;100.00
75656;BME280;64252;51.094;13.714;2023-08-21T02:20:38;68188.31;;;-143.53;100.00
75656;BME280;64252;51.094;13.714;2023-08-21T02:23:04;68188.31;;;-143.53;100.00
75656;BME280;64252;51.094;13.714;2023-08-21T02:25:31;68188.31;;;-143.53;100.00
75656;BME280;64252;51.094;13.714;2023-08-21T02:27:57;68188.31;;;-143.53;100.00
75656;BME280;64252;51.094;13.714;2023-08-21T02:30:23;68188.31;;;-143.53;100.00
75656;BME280;64252;51.094;13.714;2023-08-21T02:32:52;68188.31;;;-143.53;100.00
75656;BME280;64252;51.094;13.714;2023-08-21T02:35:20;68188.31;;;-143.53;100.00
75656;BME280;64252;51.094;13.714;2023-08-21T02:37:46;68188.31;;;-143.53;100.00
75656;BME280;64252;51.094;13.714;2023-08-21T02:40:12;68188.31;;;-143.53;100.00
75656;BME280;64252;51.094;13.714;2023-08-21T02:42:38;68188.31;;;-143.53;100.00
75656;BME280;64252;51.094;13.714;2023-08-21T02:45:04;68188.31;;;-143.53;100.00
75656;BME280;64252;51.094;13.714;2023-08-21T02:47:36;68188.31;;;-143.53;100.00
75656;BME280;64252;51.094;13.714;2023-08-21T02:50:04;68188.31;;;-143.53;100.00
75656;BME280;64252;51.094;13.714;2023-08-21T02:52:31;68188.31;;;-143.53;100.00
75656;BME280;64252;51.094;13.714;2023-08-21T02:54:58;68188.31;;;-143.53;100.00
75656;BME280;64252;51.094;13.714;2023-08-21T02:57:29;68188.31;;;-143.53;100.00
75656;BME280;64252;51.094;13.714;2023-08-21T02:59:56;68188.31;;;-143.53;100.00
75656;BME280;64252;51.094;13.714;2023-08-21T03:02:22;68188.31;;;-143.53;100.00
75656;BME280;64252;51.094;13.714;2023-08-21T03:04:50;68188.31;;;-143.53;100.00
75656;BME280;64252;51.094;13.714;2023-08-21T03:07:17;68188.31;;;-143.53;100.00
75656;BME280;64252;51.094;13.714;2023-08-21T03:09:45;68188.31;;;-143.53;100.00
75656;BME280;64252;51.094;13.714;2023-08-21T03:12:12;68188.31;;;-143.53;100.00
75656;BME280;64252;51.094;13.714;2023-08-21T03:14:40;68188.31;;;-143.53;100.00
75656;BME280;64252;51.094;13.714;2023-08-21T03:17:07;68188.31;;;-143.53;100.00
75656;BME280;64252;51.094;13.714;2023-08-21T03:19:35;68188.31;;;-143.53;100.00
75656;BME280;64252;51.094;13.714;2023-08-21T03:22:01;68188.31;;;-143.53;100.00
75656;BME280;64252;51.094;13.714;2023-08-21T03:24:26;68188.31;;;-143.53;100.00
75656;BME280;64252;51.094;13.714;2023-08-21T03:26:53;68188.31;;;-143.53;100.00
75656;BME280;64252;51.094;13.714;2023-08-21T03:29:19;68188.31;;;-143.53;100.00
75656;BME280;64252;51.094;13.714;2023-08-21T03:31:49;68188.31;;;-143.53;100.00
75656;BME280;64252;51.094;13.714;2023-08-21T03:34:15;68188.31;;;-143.53;100.00
75656;BME280;64252;51.094;13.714;2023-08-21T03:36:42;68188.31;;;-143.53;100.00
75656;BME280;64252;51.094;13.714;2023-08-21T03:39:08;68188.31;;;-143.53;100.00
75656;BME280;64252;51.094;13.714;2023-08-21T03:41:40;68188.31;;;-143.53;100.00
75656;BME280;64252;51.094;13.714;2023-08-21T03:44:13;68188.31;;;-143.53;100.00
75656;BME280;64252;51.094;13.714;2023-08-21T03:46:39;68188.31;;;-143.53;100.00
75656;BME280;64252;51.094;13.714;2023-08-21T03:49:05;68188.31;;;-143.53;100.00
75656;BME280;64252;51.094;13.714;2023-08-21T03:51:32;68188.31;;;-143.53;100.00
75656;BME280;64252;51.094;13.714;2023-08-21T03:53:58;68188.31;;;-143.53;100.00
75656;BME280;64252;51.094;13.714;2023-08-21T03:56:24;68188.31;;;-143.53;100.00
75656;BME280;64252;51.094;13.714;2023-08-21T03:58:50;68188.31;;;-143.53;100.00
75656;BME280;64252;51.094;13.714;2023-08-21T04:01:16;68188.31;;;-143.53;100.00
75656;BME280;64252;51.094;13.714;2023-08-21T04:03:42;68188.31;;;-143.53;100.00
75656;BME280;64252;51.094;13.714;2023-08-21T04:06:07;68188.31;;;-143.53;100.00
75656;BME280;64252;51.094;13.714;2023-08-21T04:08:33;68188.31;;;-143.53;100.00
75656;BME280;64252;51.094;13.714;2023-08-21T04:10:59;68188.31;;;-143.53;100.00
75656;BME280;64252;51.094;13.714;2023-08-21T04:13:36;68188.31;;;-143.53;100.00
75656;BME280;64252;51.094;13.714;2023-08-21T04:16:16;68188.31;;;-143.53;100.00
75656;BME280;64252;51.094;13.714;2023-08-21T04:22:20;68188.31;;;-143.53;100.00
75656;BME280;64252;51.094;13.714;2023-08-21T04:24:46;68188.31;;;-143.53;100.00
75656;BME280;64252;51.094;13.714;2023-08-21T04:27:13;68188.31;;;-143.53;100.00
75656;BME280;64252;51.094;13.714;2023-08-21T04:29:39;68188.31;;;-143.53;100.00
75656;BME280;64252;51.094;13.714;2023-08-21T04:32:06;68188.31;;;-143.53;100.00
75656;BME280;64252;51.094;13.714;2023-08-21T04:34:33;68188.31;;;-143.53;100.00
75656;BME280;64252;51.094;13.714;2023-08-21T04:36:59;68188.31;;;-143.53;100.00
75656;BME280;64252;51.094;13.714;2023-08-21T04:39:33;68188.31;;;-143.53;100.00
75656;BME280;64252;51.094;13.714;2023-08-21T04:42:03;68188.31;;;-143.53;100.00
75656;BME280;64252;51.094;13.714;2023-08-21T04:44:32;68188.31;;;-143.53;100.00
75656;BME280;64252;51.094;13.714;2023-08-21T04:47:19;68188.31;;;-143.53;100.00
75656;BME280;64252;51.094;13.714;2023-08-21T04:49:46;68188.31;;;-143.53;100.00
75656;BME280;64252;51.094;13.714;2023-08-21T04:52:12;68188.31;;;-143.53;100.00
75656;BME280;64252;51.094;13.714;2023-08-21T04:54:38;68188.31;;;-143.53;100.00
75656;BME280;64252;51.094;13.714;2023-08-21T04:57:08;68188.31;;;-143.53;100.00
75656;BME280;64252;51.094;13.714;2023-08-21T04:59:37;68188.31;;;-143.53;100.00
75656;BME280;64252;51.094;13.714;2023-08-21T05:02:03;68188.31;;;-143.53;100.00
75656;BME280;64252;51.094;13.714;2023-08-21T05:04:29;68188.31;;;-143.53;100.00
75656;BME280;64252;51.094;13.714;2023-08-21T05:06:55;68188.31;;;-143.53;100.00
75656;BME280;64252;51.094;13.714;2023-08-21T05:09:22;68188.31;;;-143.53;100.00
75656;BME280;64252;51.094;13.714;2023-08-21T05:11:52;68188.31;;;-143.53;100.00
75656;BME280;64252;51.094;13.714;2023-08-21T05:14:19;68188.31;;;-143.53;100.00
75656;BME280;64252;51.094;13.714;2023-08-21T05:16:45;68188.31;;;-143.53;100.00
75656;BME280;64252;51.094;13.714;2023-08-21T05:19:12;68188.31;;;-143.53;100.00
75656;BME280;64252;51.094;13.714;2023-08-21T05:21:38;68188.31;;;-143.53;100.00
75656;BME280;64252;51.094;13.714;2023-08-21T05:24:05;68188.31;;;-143.53;100.00
75656;BME280;64252;51.094;13.714;2023-08-21T05:26:36;68188.31;;;-143.53;100.00
75656;BME280;64252;51.094;13.714;2023-08-21T05:29:02;68188.31;;;-143.53;100.00
75656;BME280;64252;51.094;13.714;2023-08-21T05:31:29;68188.31;;;-143.53;100.00
75656;BME280;64252;51.094;13.714;2023-08-21T05:33:56;68188.31;;;-143.53;100.00
75656;BME280;64252;51.094;13.714;2023-08-21T05:36:23;68188.31;;;-143.53;100.00
75656;BME280;64252;51.094;13.714;2023-08-21T05:38:52;68188.31;;;-143.53;100.00
75656;BME280;64252;51.094;13.714;2023-08-21T05:41:18;68188.31;;;-143.53;100.00
75656;BME280;64252;51.094;13.714;2023-08-21T05:43:54;68188.31;;;-143.53;100.00
75656;BME280;64252;51.094;13.714;2023-08-21T05:46:22;68188.31;;;-143.53;100.00
75656;BME280;64252;51.094;13.714;2023-08-21T05:48:48;68188.31;;;-143.53;100.00
75656;BME280;64252;51.094;13.714;2023-08-21T05:51:14;68188.31;;;-143.53;100.00
75656;BME280;64252;51.094;13.714;2023-08-21T05:53:39;68188.31;;;-143.53;100.00
75656;BME280;64252;51.094;13.714;2023-08-21T05:56:05;68188.31;;;-143.53;100.00
75656;BME280;64252;51.094;13.714;2023-08-21T05:58:31;68188.31;;;-143.53;100.00
75656;BME280;64252;51.094;13.714;2023-08-21T06:00:59;68188.31;;;-143.53;100.00
75656;BME280;64252;51.094;13.714;2023-08-21T06:03:25;68188.31;;;-143.53;100.00
75656;BME280;64252;51.094;13.714;2023-08-21T06:06:08;68188.31;;;-143.53;100.00
75656;BME280;64252;51.094;13.714;2023-08-21T06:08:34;68188.31;;;-143.53;100.00
75656;BME280;64252;51.094;13.714;2023-08-21T06:10:59;68188.31;;;-143.53;100.00
75656;BME280;64252;51.094;13.714;2023-08-21T06:13:25;68188.31;;;-143.53;100.00
75656;BME280;64252;51.094;13.714;2023-08-21T06:15:54;68188.31;;;-143.53;100.00
75656;BME280;64252;51.094;13.714;2023-08-21T06:18:22;68188.31;;;-143.53;100.00
75656;BME280;64252;51.094;13.714;2023-08-21T06:20:49;68188.31;;;-143.53;100.00
75656;BME280;64252;51.094;13.714;2023-08-21T06:23:20;68188.31;;;-143.53;100.00
75656;BME280;64252;51.094;13.714;2023-08-21T06:25:49;68188.31;;;-143.53;100.00
75656;BME280;64252;51.094;13.714;2023-08-21T06:28:17;68188.31;;;-143.53;100.00
75656;BME280;64252;51.094;13.714;2023-08-21T06:30:43;68188.31;;;-143.53;100.00
75656;BME280;64252;51.094;13.714;2023-08-21T06:33:10;68188.31;;;-143.53;100.00
75656;BME280;64252;51.094;13.714;2023-08-21T06:35:38;68188.31;;;-143.53;100.00
75656;BME280;64252;51.094;13.714;2023-08-21T06:38:04;68188.31;;;-143.53;100.00
75656;BME280;64252;51.094;13.714;2023-08-21T06:40:31;68188.31;;;-143.53;100.00
75656;BME280;64252;51.094;13.714;2023-08-21T06:42:56;68188.31;;;-143.53;100.00
75656;BME280;64252;51.094;13.714;2023-08-21T06:45:27;68188.31;;;-143.53;100.00
75656;BME280;64252;51.094;13.714;2023-08-21T06:47:58;68188.31;;;-143.53;100.00
75656;BME280;64252;51.094;13.714;2023-08-21T06:50:24;68188.31;;;-143.53;100.00
75656;BME280;64252;51.094;13.714;2023-08-21T06:52:50;68188.31;;;-143.53;100.00
75656;BME280;64252;51.094;13.714;2023-08-21T06:55:15;68188.31;;;-143.53;100.00
75656;BME280;64252;51.094;13.714;2023-08-21T06:57:42;68188.31;;;-143.53;100.00
75656;BME280;64252;51.094;13.714;2023-08-21T07:02:37;68188.31;;;-143.53;100.00
75656;BME280;64252;51.094;13.714;2023-08-21T07:05:03;68188.31;;;-143.53;100.00
75656;BME280;64252;51.094;13.714;2023-08-21T07:07:28;68188.31;;;-143.53;100.00
75656;BME280;64252;51.094;13.714;2023-08-21T07:09:54;68188.31;;;-143.53;100.00
75656;BME280;64252;51.094;13.714;2023-08-21T07:12:22;68188.31;;;-143.53;100.00
75656;BME280;64252;51.094;13.714;2023-08-21T07:14:48;68188.31;;;-143.53;100.00
75656;BME280;64252;51.094;13.714;2023-08-21T07:17:14;68188.31;;;-143.53;100.00
75656;BME280;64252;51.094;13.714;2023-08-21T07:19:40;68188.31;;;-143.53;100.00
75656;BME280;64252;51.094;13.714;2023-08-21T07:22:06;68188.31;;;-143.53;100.00
75656;BME280;64252;51.094;13.714;2023-08-21T07:24:31;68188.31;;;-143.53;100.00
75656;BME280;64252;51.094;13.714;2023-08-21T07:26:57;68188.31;;;-143.53;100.00
75656;BME280;64252;51.094;13.714;2023-08-21T07:29:23;68188.31;;;-143.53;100.00
75656;BME280;64252;51.094;13.714;2023-08-21T07:31:48;68188.31;;;-143.53;100.00
75656;BME280;64252;51.094;13.714;2023-08-21T07:34:14;68188.31;;;-143.53;100.00
75656;BME280;64252;51.094;13.714;2023-08-21T07:36:39;68188.31;;;-143.53;100.00
75656;BME280;64252;51.094;13.714;2023-08-21T07:39:05;68188.31;;;-143.53;100.00
75656;BME280;64252;51.094;13.714;2023-08-21T07:41:31;68188.31;;;-143.53;100.00
75656;BME280;64252;51.094;13.714;2023-08-21T07:43:56;68188.31;;;-143.53;100.00
75656;BME280;64252;51.094;13.714;2023-08-21T07:46:22;68188.31;;;-143.53;100.00
75656;BME280;64252;51.094;13.714;2023-08-21T07:48:49;68188.31;;;-143.53;100.00
75656;BME280;64252;51.094;13.714;2023-08-21T07:51:15;68188.31;;;-143.53;100.00
75656;BME280;64252;51.094;13.714;2023-08-21T07:53:40;68188.31;;;-143.53;100.00
75656;BME280;64252;51.094;13.714;2023-08-21T07:56:06;68188.31;;;-143.53;100.00
75656;BME280;64252;51.094;13.714;2023-08-21T07:58:32;68188.31;;;-143.53;100.00
75656;BME280;64252;51.094;13.714;2023-08-21T08:00:58;68188.31;;;-143.53;100.00
75656;BME280;64252;51.094;13.714;2023-08-21T08:03:24;68188.31;;;-143.53;100.00
75656;BME280;64252;51.094;13.714;2023-08-21T08:05:50;68188.31;;;-143.53;100.00
75656;BME280;64252;51.094;13.714;2023-08-21T08:08:18;68188.31;;;-143.53;100.00
75656;BME280;64252;51.094;13.714;2023-08-21T08:10:44;68188.31;;;-143.53;100.00
75656;BME280;64252;51.094;13.714;2023-08-21T08:13:10;68188.31;;;-143.53;100.00
75656;BME280;64252;51.094;13.714;2023-08-21T08:15:35;68188.31;;;-143.53;100.00
75656;BME280;64252;51.094;13.714;2023-08-21T08:18:02;68188.31;;;-143.53;100.00
75656;BME280;64252;51.094;13.714;2023-08-21T08:20:28;68188.31;;;-143.53;100.00
75656;BME280;64252;51.094;13.714;2023-08-21T08:22:54;68188.31;;;-143.53;100.00
75656;BME280;64252;51.094;13.714;2023-08-21T08:25:20;68188.31;;;-143.53;100.00
75656;BME280;64252;51.094;13.714;2023-08-21T08:27:45;68188.31;;;-143.53;100.00
75656;BME280;64252;51.094;13.714;2023-08-21T08:30:11;68188.31;;;-143.53;100.00
75656;BME280;64252;51.094;13.714;2023-08-21T08:32:37;68188.31;;;-143.53;100.00
75656;BME280;64252;51.094;13.714;2023-08-21T08:35:03;68188.31;;;-143.53;100.00
75656;BME280;64252;51.094;13.714;2023-08-21T08:37:29;68188.31;;;-143.53;100.00
75656;BME280;64252;51.094;13.714;2023-08-21T08:39:55;68188.31;;;-143.53;100.00
75656;BME280;64252;51.094;13.714;2023-08-21T08:42:21;68188.31;;;-143.53;100.00
75656;BME280;64252;51.094;13.714;2023-08-21T08:44:49;68188.31;;;-143.53;100.00
75656;BME280;64252;51.094;13.714;2023-08-21T08:47:17;68188.31;;;-143.53;100.00
75656;BME280;64252;51.094;13.714;2023-08-21T08:49:46;68188.31;;;-143.53;100.00
75656;BME280;64252;51.094;13.714;2023-08-21T08:52:14;68188.31;;;-143.53;100.00
75656;BME280;64252;51.094;13.714;2023-08-21T08:54:40;68188.31;;;-143.53;100.00
75656;BME280;64252;51.094;13.714;2023-08-21T08:57:06;68188.31;;;-143.53;100.00
75656;BME280;64252;51.094;13.714;2023-08-21T08:59:33;68188.31;;;-143.53;100.00
75656;BME280;64252;51.094;13.714;2023-08-21T09:01:58;68188.31;;;-143.53;100.00
75656;BME280;64252;51.094;13.714;2023-08-21T09:04:24;68188.31;;;-143.53;100.00
75656;BME280;64252;51.094;13.714;2023-08-21T09:06:50;68188.31;;;-143.53;100.00
75656;BME280;64252;51.094;13.714;2023-08-21T09:09:15;68188.31;;;-143.53;100.00
75656;BME280;64252;51.094;13.714;2023-08-21T09:11:46;68188.31;;;-143.53;100.00
75656;BME280;64252;51.094;13.714;2023-08-21T09:14:13;100931.53;;;40.70;32.86
75656;BME280;64252;51.094;13.714;2023-08-21T09:16:58;100930.81;;;39.21;33.70
75656;BME280;64252;51.094;13.714;2023-08-21T09:19:25;100926.34;;;39.76;33.21
75656;BME280;64252;51.094;13.714;2023-08-21T09:21:50;68188.31;;;-143.53;100.00
75656;BME280;64252;51.094;13.714;2023-08-21T09:24:16;100932.13;;;39.33;32.52
75656;BME280;64252;51.094;13.714;2023-08-21T09:26:42;100936.56;;;40.40;32.85
75656;BME280;64252;51.094;13.714;2023-08-21T09:29:08;100933.34;;;40.30;31.07
75656;BME280;64252;51.094;13.714;2023-08-21T09:31:36;100932.97;;;41.38;30.34
75656;BME280;64252;51.094;13.714;2023-08-21T09:34:03;100934.22;;;40.10;30.56
75656;BME280;64252;51.094;13.714;2023-08-21T09:36:33;100928.06;;;39.72;30.88
75656;BME280;64252;51.094;13.714;2023-08-21T09:38:59;100932.41;;;40.50;30.05
75656;BME280;64252;51.094;13.714;2023-08-21T09:41:25;100929.59;;;40.29;31.36
75656;BME280;64252;51.094;13.714;2023-08-21T09:43:51;100933.97;;;41.33;29.87
75656;BME280;64252;51.094;13.714;2023-08-21T09:46:23;100931.72;;;42.01;28.07
75656;BME280;64252;51.094;13.714;2023-08-21T09:48:49;100931.97;;;39.67;30.66
75656;BME280;64252;51.094;13.714;2023-08-21T09:51:16;100922.59;;;39.76;30.62
75656;BME280;64252;51.094;13.714;2023-08-21T09:53:42;100919.06;;;39.49;30.92
75656;BME280;64252;51.094;13.714;2023-08-21T09:56:08;100925.81;;;40.80;29.47
75656;BME280;64252;51.094;13.714;2023-08-21T09:58:37;100926.66;;;41.11;28.51
75656;BME280;64252;51.094;13.714;2023-08-21T10:01:07;100916.75;;;40.86;29.54
75656;BME280;64252;51.094;13.714;2023-08-21T10:03:42;100909.88;;;41.13;28.96
75656;BME280;64252;51.094;13.714;2023-08-21T10:06:10;100910.81;;;39.83;30.26
75656;BME280;64252;51.094;13.714;2023-08-21T10:08:39;100910.38;;;39.79;30.15
75656;BME280;64252;51.094;13.714;2023-08-21T10:11:08;100915.38;;;40.87;29.39
75656;BME280;64252;51.094;13.714;2023-08-21T10:13:36;100915.41;;;41.47;27.89
75656;BME280;64252;51.094;13.714;2023-08-21T10:16:04;100917.97;;;41.51;26.86
75656;BME280;64252;51.094;13.714;2023-08-21T10:18:36;100919.03;;;42.01;26.92
75656;BME280;64252;51.094;13.714;2023-08-21T10:21:12;100916.44;;;42.13;26.54
75656;BME280;64252;51.094;13.714;2023-08-21T10:23:39;100919.94;;;41.33;27.57
75656;BME280;64252;51.094;13.714;2023-08-21T10:26:07;100922.06;;;40.80;27.89
75656;BME280;64252;51.094;13.714;2023-08-21T10:29:00;100921.34;;;40.43;28.24
75656;BME280;64252;51.094;13.714;2023-08-21T10:31:34;100912.78;;;40.75;28.32
75656;BME280;64252;51.094;13.714;2023-08-21T10:34:03;100912.97;;;40.93;28.70
75656;BME280;64252;51.094;13.714;2023-08-21T10:41:38;100905.03;;;40.14;30.29
75656;BME280;64252;51.094;13.714;2023-08-21T10:44:06;100902.56;;;39.89;30.25
75656;BME280;64252;51.094;13.714;2023-08-21T10:46:51;100904.38;;;38.94;30.60
75656;BME280;64252;51.094;13.714;2023-08-21T10:49:16;100904.28;;;39.77;30.16
75656;BME280;64252;51.094;13.714;2023-08-21T10:51:43;100903.94;;;40.32;29.02
75656;BME280;64252;51.094;13.714;2023-08-21T10:54:15;100902.88;;;40.14;29.01
75656;BME280;64252;51.094;13.714;2023-08-21T10:56:41;100897.03;;;41.18;28.13
75656;BME280;64252;51.094;13.714;2023-08-21T10:59:07;100901.75;;;41.44;28.03
75656;BME280;64252;51.094;13.714;2023-08-21T11:01:45;100893.75;;;40.05;29.36
75656;BME280;64252;51.094;13.714;2023-08-21T11:04:11;100889.22;;;40.04;30.12
75656;BME280;64252;51.094;13.714;2023-08-21T11:06:39;100893.06;;;39.27;30.46
75656;BME280;64252;51.094;13.714;2023-08-21T11:09:05;100900.19;;;40.24;30.03
75656;BME280;64252;51.094;13.714;2023-08-21T11:11:31;100894.03;;;39.50;29.91
75656;BME280;64252;51.094;13.714;2023-08-21T11:13:57;100892.09;;;40.32;29.79
75656;BME280;64252;51.094;13.714;2023-08-21T11:16:24;100886.63;;;40.51;29.64
75656;BME280;64252;51.094;13.714;2023-08-21T11:18:50;100890.28;;;41.33;28.74
75656;BME280;64252;51.094;13.714;2023-08-21T11:21:16;100898.19;;;41.53;29.05
75656;BME280;64252;51.094;13.714;2023-08-21T11:23:41;100881.59;;;39.80;29.84
75656;BME280;64252;51.094;13.714;2023-08-21T11:26:11;100884.41;;;39.57;30.25
75656;BME280;64252;51.094;13.714;2023-08-21T11:28:38;100888.47;;;40.11;29.73
75656;BME280;64252;51.094;13.714;2023-08-21T11:31:04;100883.19;;;41.21;28.58
75656;BME280;64252;51.094;13.714;2023-08-21T11:33:31;100877.38;;;41.76;27.85
75656;BME280;64252;51.094;13.714;2023-08-21T11:35:57;100882.00;;;41.16;28.03
75656;BME280;64252;51.094;13.714;2023-08-21T11:38:25;100875.59;;;41.81;28.14
75656;BME280;64252;51.094;13.714;2023-08-21T11:43:18;100880.19;;;40.98;29.26
75656;BME280;64252;51.094;13.714;2023-08-21T11:45:48;100877.53;;;40.34;29.84
75656;BME280;64252;51.094;13.714;2023-08-21T11:48:14;100870.69;;;40.62;29.53
75656;BME280;64252;51.094;13.714;2023-08-21T11:50:39;100865.22;;;41.04;29.73
75656;BME280;64252;51.094;13.714;2023-08-21T11:53:05;100874.72;;;40.21;28.76
75656;BME280;64252;51.094;13.714;2023-08-21T11:55:32;100867.38;;;40.96;28.57
75656;BME280;64252;51.094;13.714;2023-08-21T11:58:01;100874.06;;;40.89;29.23
75656;BME280;64252;51.094;13.714;2023-08-21T12:00:28;100871.69;;;41.25;28.50
75656;BME280;64252;51.094;13.714;2023-08-21T12:02:58;100871.31;;;41.36;28.15
75656;BME280;64252;51.094;13.714;2023-08-21T12:05:27;100877.03;;;41.49;28.01
75656;BME280;64252;51.094;13.714;2023-08-21T12:07:54;100873.53;;;39.80;30.26
75656;BME280;64252;51.094;13.714;2023-08-21T12:10:29;100880.38;;;40.93;28.95
75656;BME280;64252;51.094;13.714;2023-08-21T12:12:55;100864.78;;;41.00;28.63
75656;BME280;64252;51.094;13.714;2023-08-21T12:15:22;100878.00;;;40.17;29.28
75656;BME280;64252;51.094;13.714;2023-08-21T12:17:48;100874.88;;;39.79;30.54
75656;BME280;64252;51.094;13.714;2023-08-21T12:20:13;100878.44;;;40.95;29.17
75656;BME280;64252;51.094;13.714;2023-08-21T12:22:40;100873.94;;;40.35;30.32
75656;BME280;64252;51.094;13.714;2023-08-21T12:25:08;100877.97;;;40.53;29.57
75656;BME280;64252;51.094;13.714;2023-08-21T12:27:34;100872.16;;;39.81;30.79
75656;BME280;64252;51.094;13.714;2023-08-21T12:30:00;100875.06;;;39.74;30.57
75656;BME280;64252;51.094;13.714;2023-08-21T12:32:26;100887.63;;;40.03;29.67
75656;BME280;64252;51.094;13.714;2023-08-21T12:34:52;100881.94;;;40.12;29.88
75656;BME280;64252;51.094;13.714;2023-08-21T12:37:18;100872.09;;;40.68;29.98
75656;BME280;64252;51.094;13.714;2023-08-21T12:39:44;100869.75;;;39.44;30.68
75656;BME280;64252;51.094;13.714;2023-08-21T12:42:09;100873.44;;;40.01;29.49
75656;BME280;64252;51.094;13.714;2023-08-21T12:44:35;100870.75;;;41.15;28.49
75656;BME280;64252;51.094;13.714;2023-08-21T12:47:01;100864.38;;;42.12;27.76
75656;BME280;64252;51.094;13.714;2023-08-21T12:49:26;100875.25;;;40.78;28.49